Time;durP1;ratioP1;P1;durP2;ratioP2;P2;SDS_P1;SDS_P2;PMS_P1;PMS_P2;Temp;Humidity;BMP_temperature;BMP_pressure;BME280_temperature;BME280_humidity;BME280_pressure;Samples;Min_cycle;Max_cycle;Signal;HPM_P1;HPM_P2
2024/03/22 00:01:00;;;;;;;40.90;26.10;;;9.70;1.00;;;;;;5079502;28;20457;-56
2024/03/22 00:03:26;;;;;;;38.40;27.97;;;9.70;1.00;;;;;;5078697;28;20465;-56
2024/03/22 00:05:53;;;;;;;38.97;28.50;;;9.70;1.00;;;;;;5079208;28;20466;-56
2024/03/22 00:08:20;;;;;;;39.00;27.83;;;9.70;1.00;;;;;;5079348;28;20871;-57
2024/03/22 00:10:48;;;;;;;38.70;28.30;;;9.70;1.00;;;;;;5078934;28;20490;-58
2024/03/22 00:13:15;;;;;;;47.70;26.57;;;9.70;96.60;;;;;;5078343;28;20465;-56
2024/03/22 00:15:44;;;;;;;40.47;28.17;;;9.60;99.90;;;;;;5078948;28;20985;-58
2024/03/22 00:18:10;;;;;;;40.83;26.00;;;9.60;86.30;;;;;;5078876;28;20461;-54
2024/03/22 00:20:37;;;;;;;39.27;28.53;;;9.60;99.90;;;;;;5079147;28;20544;-57
2024/03/22 00:23:04;;;;;;;37.83;26.77;;;9.60;99.90;;;;;;5078879;28;20510;-56
2024/03/22 00:25:32;;;;;;;41.80;27.60;;;9.60;99.90;;;;;;5078679;28;20438;-56
2024/03/22 00:27:58;;;;;;;38.87;26.30;;;9.60;99.90;;;;;;5078806;28;20953;-57
2024/03/22 00:30:27;;;;;;;42.10;28.17;;;9.60;99.90;;;;;;5078481;28;20456;-55
2024/03/22 00:32:53;;;;;;;41.97;27.30;;;9.60;99.90;;;;;;5078521;28;20489;-57
2024/03/22 00:35:20;;;;;;;41.73;28.70;;;9.60;99.90;;;;;;5078595;28;20790;-56
2024/03/22 00:37:47;;;;;;;40.20;26.83;;;9.60;99.90;;;;;;5078412;28;20449;-56
2024/03/22 00:40:14;;;;;;;46.30;29.00;;;9.70;99.90;;;;;;5078556;28;20461;-58
2024/03/22 00:42:40;;;;;;;36.50;27.07;;;9.70;1.00;;;;;;5078359;28;20461;-57
2024/03/22 00:45:08;;;;;;;36.80;26.60;;;9.70;99.90;;;;;;5078716;28;20457;-57
2024/03/22 00:47:36;;;;;;;42.73;27.43;;;9.70;99.90;;;;;;5078067;28;20546;-56
2024/03/22 00:50:04;;;;;;;40.93;26.83;;;9.80;99.90;;;;;;5077694;28;20461;-58
2024/03/22 00:52:31;;;;;;;38.57;25.97;;;9.80;99.90;;;;;;5078093;28;20462;-58
2024/03/22 00:54:58;;;;;;;38.33;25.87;;;9.80;99.90;;;;;;5078126;28;20456;-57
2024/03/22 00:57:25;;;;;;;37.60;26.27;;;9.90;99.90;;;;;;5078130;28;20453;-57
2024/03/22 00:59:51;;;;;;;40.60;27.67;;;9.90;99.90;;;;;;5078216;28;20500;-58
2024/03/22 01:02:18;;;;;;;37.47;26.27;;;9.90;99.80;;;;;;5078307;28;20482;-58
2024/03/22 01:04:46;;;;;;;37.47;25.03;;;9.90;16.80;;;;;;5078444;28;20481;-55
2024/03/22 01:07:13;;;;;;;35.57;25.33;;;10.00;1.00;;;;;;5077967;28;20518;-57
2024/03/22 01:09:40;;;;;;;36.40;25.17;;;10.00;1.00;;;;;;5077455;28;20477;-55
2024/03/22 01:12:07;;;;;;;35.40;24.60;;;10.00;1.00;;;;;;5077985;28;20526;-55
2024/03/22 01:14:34;;;;;;;42.40;28.07;;;10.00;1.00;;;;;;5078017;28;20462;-57
2024/03/22 01:17:01;;;;;;;35.67;25.10;;;10.00;1.00;;;;;;5077992;28;20488;-57
2024/03/22 01:19:27;;;;;;;37.77;24.37;;;10.00;1.00;;;;;;5077809;28;20881;-55
2024/03/22 01:21:56;;;;;;;38.67;24.93;;;10.10;1.00;;;;;;5077664;28;20890;-57
2024/03/22 01:24:22;;;;;;;41.30;26.67;;;10.10;1.00;;;;;;5077037;28;20547;-58
2024/03/22 01:26:50;;;;;;;40.50;24.73;;;10.10;1.00;;;;;;5077605;28;20487;-57
2024/03/22 01:29:16;;;;;;;38.07;25.07;;;10.10;1.00;;;;;;5077191;28;20533;-58
2024/03/22 01:31:43;;;;;;;38.33;24.07;;;10.10;1.00;;;;;;5077359;28;20463;-57
2024/03/22 01:34:09;;;;;;;41.47;24.27;;;10.10;1.00;;;;;;5077428;28;20531;-57
2024/03/22 01:36:37;;;;;;;34.30;23.77;;;10.10;1.00;;;;;;5077951;28;20457;-58
2024/03/22 01:39:04;;;;;;;36.13;24.03;;;10.10;99.90;;;;;;5077426;28;20449;-56
2024/03/22 01:41:32;;;;;;;40.40;26.10;;;10.10;99.90;;;;;;5077244;28;20443;-58
2024/03/22 01:43:58;;;;;;;39.47;25.37;;;10.10;99.90;;;;;;5077477;28;20457;-58
2024/03/22 01:46:25;;;;;;;42.00;24.27;;;10.10;99.90;;;;;;5077641;28;20457;-57
2024/03/22 01:48:52;;;;;;;33.63;24.53;;;10.10;99.90;;;;;;5077225;28;20558;-58
2024/03/22 01:51:20;;;;;;;38.93;24.93;;;10.20;99.90;;;;;;5077521;28;20532;-57
2024/03/22 01:53:47;;;;;;;38.60;23.73;;;10.10;1.00;;;;;;5076929;28;20511;-53
2024/03/22 01:56:16;;;;;;;36.50;24.47;;;10.10;1.00;;;;;;5077342;28;20496;-58
2024/03/22 01:58:43;;;;;;;32.30;21.67;;;10.10;99.90;;;;;;5077280;28;20548;-58
2024/03/22 02:01:10;;;;;;;37.67;24.47;;;10.10;1.00;;;;;;5077437;28;20449;-57
2024/03/22 02:03:36;;;;;;;31.83;22.57;;;10.10;99.90;;;;;;5076962;28;20457;-57
2024/03/22 02:06:04;;;;;;;35.70;22.47;;;10.10;54.00;;;;;;5077275;28;20457;-57
2024/03/22 02:08:30;;;;;;;36.20;23.80;;;10.10;1.00;;;;;;5077338;28;20496;-57
2024/03/22 02:10:57;;;;;;;35.97;21.73;;;10.20;99.90;;;;;;5076934;28;20546;-57
2024/03/22 02:13:25;;;;;;;38.40;23.23;;;10.20;1.00;;;;;;5076897;28;20457;-58
2024/03/22 02:15:52;;;;;;;31.77;21.73;;;10.20;99.90;;;;;;5077224;28;20465;-56
2024/03/22 02:18:19;;;;;;;34.40;22.93;;;10.20;1.00;;;;;;5076912;28;20452;-56
2024/03/22 02:20:46;;;;;;;31.60;21.47;;;10.20;1.00;;;;;;5077202;28;20874;-56
2024/03/22 02:23:12;;;;;;;29.70;19.97;;;10.20;1.00;;;;;;5076887;28;20881;-54
2024/03/22 02:25:41;;;;;;;31.93;21.70;;;10.30;99.90;;;;;;5076815;28;20464;-59
2024/03/22 02:28:07;;;;;;;29.63;20.73;;;10.30;99.90;;;;;;5076714;28;20592;-57
2024/03/22 02:30:34;;;;;;;31.60;21.33;;;10.30;44.30;;;;;;5077350;28;20740;-57
2024/03/22 02:33:00;;;;;;;31.43;20.20;;;10.20;99.90;;;;;;5077219;28;20518;-58
2024/03/22 02:35:27;;;;;;;26.30;20.57;;;10.30;99.90;;;;;;5076696;28;20457;-57
2024/03/22 02:37:54;;;;;;;27.47;20.30;;;10.30;99.90;;;;;;5080031;28;20505;-58
2024/03/22 02:40:21;;;;;;;27.97;20.00;;;10.30;1.00;;;;;;5080726;28;20457;-57
2024/03/22 02:42:48;;;;;;;29.67;18.67;;;10.40;1.00;;;;;;5081433;28;20734;-58
2024/03/22 02:45:16;;;;;;;26.10;18.60;;;10.40;1.00;;;;;;5080784;28;20462;-57
2024/03/22 02:47:42;;;;;;;25.40;18.17;;;10.40;1.00;;;;;;5080526;28;20542;-58
2024/03/22 02:50:10;;;;;;;32.57;19.67;;;10.40;1.00;;;;;;5080936;28;20536;-57
2024/03/22 02:52:36;;;;;;;27.87;20.00;;;10.40;1.00;;;;;;5080825;28;20556;-57
2024/03/22 02:55:03;;;;;;;27.53;18.57;;;10.40;1.00;;;;;;5080758;28;20461;-57
2024/03/22 02:57:29;;;;;;;29.13;19.53;;;10.40;1.00;;;;;;5080279;28;20488;-56
2024/03/22 03:00:00;;;;;;;27.13;18.53;;;10.40;1.00;;;;;;5080602;28;20582;-57
2024/03/22 03:02:27;;;;;;;34.87;21.77;;;10.40;1.00;;;;;;5080670;28;20489;-57
2024/03/22 03:04:54;;;;;;;27.33;19.20;;;10.40;1.00;;;;;;5080592;28;20515;-58
2024/03/22 03:07:20;;;;;;;25.93;18.40;;;10.40;1.00;;;;;;5080202;28;20495;-57
2024/03/22 03:09:47;;;;;;;29.40;19.60;;;10.30;1.00;;;;;;5079905;28;20993;-57
2024/03/22 03:12:14;;;;;;;23.33;17.70;;;10.30;16.80;;;;;;5080048;28;20820;-58
2024/03/22 03:14:41;;;;;;;26.63;17.63;;;10.30;97.00;;;;;;5080425;28;20459;-57
2024/03/22 03:17:09;;;;;;;25.23;18.43;;;10.30;9.30;;;;;;5080452;28;20560;-58
2024/03/22 03:19:37;;;;;;;26.33;18.93;;;10.30;55.00;;;;;;5080089;28;20526;-57
2024/03/22 03:22:03;;;;;;;29.00;18.40;;;10.20;93.90;;;;;;5080007;28;20495;-58
2024/03/22 03:24:31;;;;;;;30.93;19.70;;;10.30;99.90;;;;;;5079568;28;20902;-57
2024/03/22 03:26:57;;;;;;;26.37;20.17;;;10.30;99.90;;;;;;5080069;28;20510;-58
2024/03/22 03:29:24;;;;;;;29.40;19.70;;;10.30;99.90;;;;;;5079717;28;20934;-55
2024/03/22 03:31:50;;;;;;;29.63;19.87;;;10.20;99.90;;;;;;5079688;28;20551;-57
2024/03/22 03:34:20;;;;;;;29.70;18.93;;;10.20;99.90;;;;;;5079694;28;20468;-57
2024/03/22 03:36:47;;;;;;;26.87;19.07;;;10.30;99.90;;;;;;5079632;28;20514;-57
2024/03/22 03:39:14;;;;;;;26.10;18.83;;;10.30;99.90;;;;;;5080080;28;20450;-57
2024/03/22 03:41:40;;;;;;;28.10;19.43;;;10.30;99.90;;;;;;5079514;28;20463;-54
2024/03/22 03:44:07;;;;;;;25.23;18.10;;;10.30;99.90;;;;;;5079853;28;20490;-56
2024/03/22 03:46:34;;;;;;;28.70;19.67;;;10.30;99.90;;;;;;5079528;28;20720;-58
2024/03/22 03:49:01;;;;;;;31.93;19.20;;;10.30;99.90;;;;;;5092285;28;20537;-58
2024/03/22 03:51:28;;;;;;;25.33;19.50;;;10.30;99.90;;;;;;5099417;28;20461;-56
2024/03/22 03:53:56;;;;;;;26.63;20.00;;;10.30;99.90;;;;;;5099383;28;20928;-56
2024/03/22 03:56:22;;;;;;;26.20;19.53;;;10.30;99.90;;;;;;5099408;28;20499;-57
2024/03/22 03:58:49;;;;;;;28.20;18.90;;;10.30;1.00;;;;;;5099642;28;20456;-58
2024/03/22 04:01:15;;;;;;;26.60;17.90;;;10.30;1.00;;;;;;5099220;28;20456;-58
2024/03/22 04:03:42;;;;;;;27.53;18.80;;;10.30;1.00;;;;;;5099744;28;20431;-57
2024/03/22 04:06:09;;;;;;;26.93;18.87;;;10.20;99.90;;;;;;5099255;28;20463;-57
2024/03/22 04:08:37;;;;;;;22.60;17.73;;;10.20;99.90;;;;;;5099257;28;20492;-57
2024/03/22 04:11:04;;;;;;;24.40;18.10;;;10.20;99.90;;;;;;5098717;28;20542;-58
2024/03/22 04:13:31;;;;;;;25.53;18.13;;;10.20;99.90;;;;;;5099149;28;20460;-58
2024/03/22 04:15:59;;;;;;;23.67;17.30;;;10.10;99.90;;;;;;5098844;28;20457;-58
2024/03/22 04:18:26;;;;;;;22.30;17.40;;;10.10;99.90;;;;;;5099046;28;20456;-58
2024/03/22 04:20:56;;;;;;;24.30;17.23;;;10.10;99.90;;;;;;5099043;28;20521;-57
2024/03/22 04:23:24;;;;;;;25.63;18.50;;;10.10;1.00;;;;;;5099158;28;20460;-58
2024/03/22 04:25:56;;;;;;;25.23;18.03;;;10.00;83.00;;;;;;5099020;28;20457;-57
2024/03/22 04:28:24;;;;;;;23.70;17.27;;;10.00;99.90;;;;;;5099127;28;20844;-58
2024/03/22 04:30:59;;;;;;;26.23;19.10;;;10.00;99.90;;;;;;5098850;28;20558;-58
2024/03/22 04:33:27;;;;;;;28.80;17.73;;;9.90;1.00;;;;;;5098850;28;20460;-57
2024/03/22 04:35:53;;;;;;;28.27;19.20;;;9.90;1.00;;;;;;5098947;28;20463;-58
2024/03/22 04:38:21;;;;;;;29.03;18.13;;;9.90;99.90;;;;;;5098739;28;20458;-57
2024/03/22 04:40:48;;;;;;;25.80;17.87;;;10.00;1.00;;;;;;5098880;28;20462;-56
2024/03/22 04:43:17;;;;;;;26.70;17.23;;;9.90;99.90;;;;;;5098350;28;20495;-55
2024/03/22 04:45:44;;;;;;;23.03;17.50;;;9.90;99.90;;;;;;5098571;28;20915;-57
2024/03/22 04:48:12;;;;;;;23.57;18.03;;;9.90;1.00;;;;;;5098785;28;20603;-58
2024/03/22 04:50:39;;;;;;;23.40;17.73;;;9.90;1.00;;;;;;5098537;28;20513;-58
2024/03/22 04:53:05;;;;;;;22.93;16.37;;;9.90;99.90;;;;;;5098521;28;20463;-58
2024/03/22 04:55:33;;;;;;;21.97;16.50;;;9.90;1.00;;;;;;5097299;28;20460;-58
2024/03/22 04:57:59;;;;;;;23.27;17.43;;;9.90;99.90;;;;;;5078371;28;20457;-58
2024/03/22 05:00:28;;;;;;;21.73;17.20;;;9.90;27.30;;;;;;5076982;28;20436;-57
2024/03/22 05:02:54;;;;;;;28.80;18.47;;;9.80;1.00;;;;;;5077864;28;20436;-57
2024/03/22 05:05:22;;;;;;;26.07;18.43;;;9.80;1.00;;;;;;5077943;28;20483;-57
2024/03/22 05:07:48;;;;;;;22.73;17.77;;;9.80;99.90;;;;;;5076440;28;20579;-57
2024/03/22 05:10:16;;;;;;;24.10;17.27;;;9.80;99.90;;;;;;5077607;28;20775;-57
2024/03/22 05:12:42;;;;;;;24.30;17.40;;;9.80;99.90;;;;;;5078150;28;20527;-58
2024/03/22 05:15:10;;;;;;;22.60;17.43;;;9.90;1.00;;;;;;5078161;28;20461;-54
2024/03/22 05:17:39;;;;;;;22.00;17.60;;;9.90;99.90;;;;;;5077663;28;20833;-58
2024/03/22 05:20:10;;;;;;;21.63;16.60;;;9.90;99.90;;;;;;5077591;28;20468;-57
2024/03/22 05:22:37;;;;;;;19.80;15.67;;;9.90;1.00;;;;;;5077818;28;20436;-58
2024/03/22 05:25:05;;;;;;;22.30;17.47;;;9.90;1.00;;;;;;5077908;28;20513;-57
2024/03/22 05:27:32;;;;;;;20.70;17.63;;;9.90;99.90;;;;;;5077364;28;20949;-57
2024/03/22 05:29:59;;;;;;;21.87;17.30;;;10.00;99.90;;;;;;5077502;28;20489;-58
2024/03/22 05:32:26;;;;;;;22.23;16.53;;;10.00;1.00;;;;;;5077396;28;20762;-57
2024/03/22 05:34:54;;;;;;;21.27;17.00;;;10.00;99.90;;;;;;5077693;28;20479;-57
2024/03/22 05:37:21;;;;;;;23.07;16.43;;;10.00;1.00;;;;;;5077225;28;20465;-57
2024/03/22 05:39:48;;;;;;;20.73;17.10;;;10.10;99.90;;;;;;5077513;28;20544;-58
2024/03/22 05:42:15;;;;;;;17.57;15.77;;;10.10;99.90;;;;;;5077519;28;20465;-58
2024/03/22 05:44:42;;;;;;;22.73;15.37;;;10.20;99.90;;;;;;5082221;28;20475;-57
2024/03/22 05:47:08;;;;;;;18.30;14.53;;;10.20;99.90;;;;;;5097937;28;20935;-58
2024/03/22 05:49:35;;;;;;;20.83;16.20;;;10.20;99.90;;;;;;5097555;28;20543;-57
2024/03/22 05:52:04;;;;;;;20.70;16.00;;;10.30;99.90;;;;;;5097149;28;20547;-57
2024/03/22 05:54:30;;;;;;;17.93;15.60;;;10.30;99.90;;;;;;5097749;28;20488;-58
2024/03/22 05:56:57;;;;;;;20.63;15.40;;;10.40;1.00;;;;;;5097768;28;20457;-57
2024/03/22 05:59:24;;;;;;;21.93;16.70;;;10.40;99.90;;;;;;5097001;28;20563;-58
2024/03/22 06:01:51;;;;;;;19.30;15.43;;;10.40;48.70;;;;;;5096881;28;20471;-58
2024/03/22 06:04:17;;;;;;;23.63;15.73;;;10.50;1.00;;;;;;5097348;28;20430;-57
2024/03/22 06:06:44;;;;;;;20.40;15.03;;;10.50;1.00;;;;;;5097860;28;20774;-58
2024/03/22 06:09:13;;;;;;;19.03;14.67;;;10.50;95.10;;;;;;5097410;28;20587;-58
2024/03/22 06:11:43;;;;;;;23.43;17.33;;;10.60;1.00;;;;;;5098992;28;20471;-57
2024/03/22 06:14:10;;;;;;;21.23;16.07;;;10.70;99.90;;;;;;5101340;28;20439;-56
2024/03/22 06:16:37;;;;;;;18.87;16.10;;;10.70;30.00;;;;;;5101574;28;20555;-58
2024/03/22 06:19:03;;;;;;;18.73;15.73;;;10.70;99.90;;;;;;5101075;28;20457;-58
2024/03/22 06:21:30;;;;;;;23.40;17.30;;;10.80;76.40;;;;;;5100739;28;20890;-58
2024/03/22 06:23:57;;;;;;;19.97;15.23;;;10.80;1.00;;;;;;5100557;28;20768;-58
2024/03/22 06:26:25;;;;;;;22.27;16.63;;;10.80;99.90;;;;;;5100822;28;20529;-57
2024/03/22 06:28:51;;;;;;;21.63;16.97;;;10.90;99.90;;;;;;5100686;28;20915;-58
2024/03/22 06:31:19;;;;;;;19.87;15.03;;;10.90;99.90;;;;;;5100915;28;20460;-59
2024/03/22 06:33:45;;;;;;;22.83;16.57;;;11.00;99.90;;;;;;5101040;28;20555;-58
2024/03/22 06:36:12;;;;;;;22.17;17.80;;;11.00;99.90;;;;;;5101277;28;20509;-59
2024/03/22 06:38:39;;;;;;;28.90;18.30;;;11.00;99.90;;;;;;5101476;28;20456;-59
2024/03/22 06:41:06;;;;;;;29.07;19.40;;;11.10;99.90;;;;;;5101102;28;20463;-58
2024/03/22 06:43:33;;;;;;;20.97;17.37;;;11.20;99.90;;;;;;5100796;28;20843;-60
2024/03/22 06:46:01;;;;;;;23.50;17.83;;;11.20;99.90;;;;;;5092845;28;20540;-59
2024/03/22 06:48:27;;;;;;;21.23;17.63;;;11.20;99.90;;;;;;5060109;28;20925;-60
2024/03/22 06:50:54;;;;;;;22.30;18.90;;;11.40;99.90;;;;;;5060378;28;20883;-59
2024/03/22 06:53:20;;;;;;;23.17;18.83;;;11.50;99.90;;;;;;5060514;28;20458;-60
2024/03/22 06:55:48;;;;;;;22.40;18.90;;;11.60;99.90;;;;;;5060143;28;20539;-59
2024/03/22 06:58:14;;;;;;;24.77;18.00;;;11.70;99.90;;;;;;5060851;28;20929;-60
2024/03/22 07:00:43;;;;;;;24.07;19.97;;;11.90;99.90;;;;;;5060685;28;20527;-60
2024/03/22 07:03:09;;;;;;;24.43;20.47;;;12.00;99.90;;;;;;5059340;28;20519;-60
2024/03/22 07:05:36;;;;;;;24.10;19.90;;;12.10;92.90;;;;;;5059648;28;20458;-59
2024/03/22 07:08:03;;;;;;;26.30;19.53;;;12.10;92.20;;;;;;5060082;28;20527;-59
2024/03/22 07:10:31;;;;;;;24.13;20.63;;;12.20;73.40;;;;;;5059867;28;20493;-60
2024/03/22 07:12:57;;;;;;;22.50;20.07;;;12.20;62.50;;;;;;5059719;28;20560;-60
2024/03/22 07:15:25;;;;;;;26.60;20.10;;;12.20;28.90;;;;;;5058656;28;20827;-60
2024/03/22 07:17:53;;;;;;;26.63;20.77;;;12.30;51.40;;;;;;5058138;28;20559;-59
2024/03/22 07:20:20;;;;;;;24.93;22.10;;;12.30;35.30;;;;;;5058645;28;20469;-59
2024/03/22 07:22:46;;;;;;;26.50;21.87;;;12.30;18.40;;;;;;5058386;28;20741;-59
2024/03/22 07:25:13;;;;;;;27.17;21.20;;;12.30;6.10;;;;;;5058211;28;20468;-60
2024/03/22 07:27:40;;;;;;;27.80;22.80;;;12.30;32.50;;;;;;5056912;28;20466;-59
2024/03/22 07:30:08;;;;;;;34.17;26.03;;;12.30;38.10;;;;;;5058130;28;20488;-59
2024/03/22 07:32:37;;;;;;;30.43;23.70;;;12.30;26.40;;;;;;5059186;28;20512;-59
2024/03/22 07:35:07;;;;;;;30.03;23.20;;;12.30;54.60;;;;;;5077849;28;20560;-59
2024/03/22 07:37:34;;;;;;;29.27;23.20;;;12.30;35.20;;;;;;5077996;28;20464;-59
2024/03/22 07:40:01;;;;;;;31.90;24.00;;;12.40;50.30;;;;;;5078148;28;20464;-60
2024/03/22 07:42:27;;;;;;;27.90;22.73;;;12.40;36.30;;;;;;5079568;28;20458;-59
2024/03/22 07:44:54;;;;;;;27.43;22.97;;;12.50;11.20;;;;;;5078778;28;20462;-59
2024/03/22 07:47:21;;;;;;;30.53;23.90;;;12.70;15.80;;;;;;5079417;28;20492;-60
2024/03/22 07:49:48;;;;;;;28.60;24.83;;;12.90;1.00;;;;;;5078509;28;20489;-59
2024/03/22 07:52:16;;;;;;;28.77;23.70;;;13.10;1.00;;;;;;5078571;28;20944;-60
2024/03/22 07:54:43;;;;;;;30.10;23.07;;;13.40;1.00;;;;;;5078079;28;20463;-59
2024/03/22 07:57:10;;;;;;;29.60;23.93;;;13.80;1.00;;;;;;5082200;28;20996;-60
2024/03/22 07:59:38;;;;;;;29.70;22.77;;;13.90;1.00;;;;;;5079894;28;20544;-59
2024/03/22 08:02:04;;;;;;;26.47;23.03;;;14.20;1.00;;;;;;5077612;28;20461;-60
2024/03/22 08:04:31;;;;;;;30.77;24.83;;;14.30;1.00;;;;;;5076908;28;20929;-60
2024/03/22 08:06:58;;;;;;;29.67;23.70;;;14.20;1.00;;;;;;5075606;28;20457;-60
2024/03/22 08:09:26;;;;;;;28.20;23.80;;;14.30;1.00;;;;;;5074245;28;20497;-61
2024/03/22 08:11:53;;;;;;;26.47;22.07;;;14.40;1.00;;;;;;5075513;28;20806;-60
2024/03/22 08:14:20;;;;;;;26.87;22.73;;;14.30;1.00;;;;;;5076658;28;20782;-59
2024/03/22 08:16:46;;;;;;;26.87;22.83;;;14.30;1.00;;;;;;5076598;28;20943;-59
2024/03/22 08:19:14;;;;;;;31.53;23.00;;;14.30;1.00;;;;;;5073318;28;20454;-61
2024/03/22 08:21:40;;;;;;;26.80;22.57;;;14.30;1.00;;;;;;5056980;28;20454;-59
2024/03/22 08:24:07;;;;;;;28.20;23.10;;;14.30;1.00;;;;;;5070899;28;20449;-59
2024/03/22 08:26:35;;;;;;;29.30;24.07;;;14.10;1.00;;;;;;5076865;28;20894;-59
2024/03/22 08:29:02;;;;;;;32.40;23.90;;;14.10;1.00;;;;;;5077563;28;20780;-59
2024/03/22 08:31:29;;;;;;;28.13;23.30;;;14.10;1.00;;;;;;5077821;28;20486;-59
2024/03/22 08:33:56;;;;;;;27.40;22.60;;;14.50;1.00;;;;;;5077654;28;20966;-59
2024/03/22 08:36:23;;;;;;;26.37;22.07;;;14.80;1.00;;;;;;5078172;28;20552;-59
2024/03/22 08:38:51;;;;;;;24.33;21.10;;;15.10;1.00;;;;;;5078493;28;20454;-59
2024/03/22 08:41:17;;;;;;;24.13;21.20;;;14.90;1.00;;;;;;5076669;28;20541;-59
2024/03/22 08:43:46;;;;;;;24.50;21.00;;;14.90;1.00;;;;;;5075542;28;20484;-59
2024/03/22 08:46:12;;;;;;;28.20;22.43;;;14.50;1.00;;;;;;5074748;28;20457;-59
2024/03/22 08:48:43;;;;;;;26.07;19.53;;;14.30;1.00;;;;;;5075035;28;20526;-60
2024/03/22 08:51:09;;;;;;;25.30;20.20;;;14.20;1.00;;;;;;5075167;28;20932;-60
2024/03/22 08:53:36;;;;;;;24.73;19.17;;;14.30;1.00;;;;;;5074500;28;20489;-59
2024/03/22 08:56:02;;;;;;;26.07;21.30;;;14.40;1.00;;;;;;5074869;28;20828;-59
2024/03/22 08:58:30;;;;;;;22.53;18.83;;;14.60;1.00;;;;;;5075771;28;20966;-60
2024/03/22 09:00:58;;;;;;;23.03;19.00;;;14.60;1.00;;;;;;5077402;28;20457;-61
2024/03/22 09:03:25;;;;;;;20.50;17.90;;;14.70;1.00;;;;;;5065307;28;20886;-61
2024/03/22 09:05:53;;;;;;;23.33;17.60;;;14.70;1.00;;;;;;5057550;28;20794;-59
2024/03/22 09:08:21;;;;;;;20.87;17.70;;;14.90;1.00;;;;;;5058027;28;20458;-59
2024/03/22 09:10:47;;;;;;;20.17;17.23;;;14.90;99.90;;;;;;5057476;28;20509;-60
2024/03/22 09:13:16;;;;;;;23.87;17.57;;;14.90;99.90;;;;;;5076266;28;20508;-60
2024/03/22 09:15:42;;;;;;;22.37;18.37;;;14.80;99.90;;;;;;5074291;28;20548;-59
2024/03/22 09:18:11;;;;;;;21.83;17.60;;;14.80;99.90;;;;;;5074683;28;20640;-60
2024/03/22 09:20:37;;;;;;;19.23;15.77;;;15.00;99.90;;;;;;5074502;28;20666;-59
2024/03/22 09:23:05;;;;;;;18.13;16.33;;;14.90;99.90;;;;;;5074557;28;20835;-60
2024/03/22 09:25:32;;;;;;;18.33;15.70;;;14.80;99.90;;;;;;5074836;28;20916;-60
2024/03/22 09:28:00;;;;;;;17.13;14.20;;;14.70;99.90;;;;;;5075071;28;20458;-60
2024/03/22 09:30:27;;;;;;;18.73;14.90;;;14.70;99.90;;;;;;5075817;28;20500;-60
2024/03/22 09:32:54;;;;;;;19.20;14.40;;;14.60;99.90;;;;;;5076026;28;20898;-60
2024/03/22 09:35:22;;;;;;;15.60;12.93;;;14.50;99.90;;;;;;5076807;28;20510;-59
2024/03/22 09:37:49;;;;;;;16.10;14.40;;;14.60;99.90;;;;;;5077308;28;20461;-59
2024/03/22 09:40:16;;;;;;;16.80;13.57;;;14.60;99.90;;;;;;5077326;28;20870;-60
2024/03/22 09:42:44;;;;;;;15.00;13.43;;;14.70;99.90;;;;;;5077725;28;20468;-59
2024/03/22 09:45:11;;;;;;;21.07;15.97;;;14.70;99.90;;;;;;5077312;28;20464;-59
2024/03/22 09:47:39;;;;;;;19.23;14.40;;;14.80;99.90;;;;;;5076666;28;20458;-59
2024/03/22 09:50:08;;;;;;;18.53;15.20;;;15.10;99.90;;;;;;5076446;28;20861;-59
2024/03/22 09:52:39;;;;;;;15.80;13.43;;;15.10;99.90;;;;;;5076937;28;20461;-60
2024/03/22 09:55:09;;;;;;;20.53;14.27;;;15.10;99.90;;;;;;5077546;28;20559;-58
2024/03/22 09:57:40;;;;;;;15.40;11.83;;;15.30;99.90;;;;;;5077025;28;20465;-59
2024/03/22 10:00:08;;;;;;;15.90;13.40;;;15.50;99.90;;;;;;5077261;28;20458;-58
2024/03/22 10:02:36;;;;;;;17.50;13.77;;;15.30;99.90;;;;;;5081521;28;20448;-63
2024/03/22 10:05:02;;;;;;;17.50;13.10;;;15.30;99.90;;;;;;5096286;28;20463;-59
2024/03/22 10:07:30;;;;;;;20.57;15.33;;;15.10;99.90;;;;;;5095031;28;20463;-60
2024/03/22 10:10:00;;;;;;;16.80;12.63;;;15.40;99.90;;;;;;5095186;28;20496;-60
2024/03/22 10:12:27;;;;;;;16.00;12.17;;;15.20;99.90;;;;;;5095199;28;20439;-59
2024/03/22 10:14:53;;;;;;;16.57;12.60;;;15.30;99.90;;;;;;5095539;28;20463;-58
2024/03/22 10:17:21;;;;;;;13.53;11.80;;;15.40;99.90;;;;;;5095896;28;20468;-60
2024/03/22 10:19:51;;;;;;;17.13;12.50;;;15.40;99.90;;;;;;5096212;28;20453;-60
2024/03/22 10:22:18;;;;;;;14.30;12.40;;;15.50;99.90;;;;;;5097437;28;20514;-60
2024/03/22 10:24:45;;;;;;;14.33;12.30;;;15.20;99.90;;;;;;5097118;28;20452;-60
2024/03/22 10:27:14;;;;;;;16.83;12.37;;;15.30;99.90;;;;;;5097448;28;20456;-60
2024/03/22 10:29:41;;;;;;;13.27;11.77;;;15.50;99.90;;;;;;5096814;28;20492;-59
2024/03/22 10:32:11;;;;;;;13.60;12.23;;;15.50;99.90;;;;;;5097005;28;20756;-59
2024/03/22 10:34:39;;;;;;;16.83;12.60;;;15.50;99.90;;;;;;5086237;28;20457;-59
2024/03/22 10:37:09;;;;;;;13.37;11.70;;;15.60;99.90;;;;;;5075760;28;20449;-60
2024/03/22 10:39:37;;;;;;;14.77;12.30;;;15.60;99.90;;;;;;5075429;28;20917;-62
2024/03/22 10:42:05;;;;;;;13.87;12.30;;;15.60;99.90;;;;;;5075456;28;20531;-60
2024/03/22 10:44:33;;;;;;;15.57;13.10;;;15.50;99.90;;;;;;5073845;28;20526;-60
2024/03/22 10:47:05;;;;;;;13.70;11.37;;;15.40;99.90;;;;;;5075209;28;20874;-59
2024/03/22 10:49:38;;;;;;;13.13;11.77;;;15.40;99.90;;;;;;5074446;28;20606;-60
2024/03/22 10:52:07;;;;;;;16.70;12.83;;;15.40;99.90;;;;;;5056279;28;20540;-59
2024/03/22 10:54:39;;;;;;;15.90;12.70;;;15.30;99.90;;;;;;5074087;28;20454;-59
2024/03/22 10:57:08;;;;;;;14.70;11.80;;;15.40;99.90;;;;;;5076775;28;20453;-60
2024/03/22 10:59:36;;;;;;;17.10;11.83;;;15.50;99.90;;;;;;5079404;28;20499;-59
2024/03/22 11:02:07;;;;;;;14.10;11.60;;;15.40;99.90;;;;;;5078564;28;20489;-60
2024/03/22 11:04:33;;;;;;;15.80;11.60;;;15.30;99.90;;;;;;5077898;28;20461;-60
2024/03/22 11:07:03;;;;;;;12.70;11.00;;;15.30;99.90;;;;;;5078073;28;20460;-59
2024/03/22 11:09:30;;;;;;;16.57;12.90;;;15.30;99.90;;;;;;5076960;28;20524;-58
2024/03/22 11:11:59;;;;;;;14.53;11.67;;;15.50;99.90;;;;;;5078153;28;20461;-59
2024/03/22 11:14:25;;;;;;;18.93;12.60;;;15.70;99.90;;;;;;5078010;28;20465;-60
2024/03/22 11:16:54;;;;;;;18.93;12.43;;;15.80;99.90;;;;;;5079268;28;20461;-60
2024/03/22 11:19:20;;;;;;;14.70;12.30;;;15.80;99.90;;;;;;5078870;28;20453;-59
2024/03/22 11:21:48;;;;;;;13.47;12.07;;;15.70;99.90;;;;;;5079375;28;20473;-60
2024/03/22 11:24:15;;;;;;;13.00;10.70;;;15.50;99.90;;;;;;5079357;28;20453;-60
2024/03/22 11:26:44;;;;;;;13.47;12.07;;;15.40;99.90;;;;;;5079879;28;20463;-59
2024/03/22 11:29:10;;;;;;;13.20;11.80;;;15.40;99.90;;;;;;5079013;28;20454;-61
2024/03/22 11:31:38;;;;;;;12.83;11.43;;;15.50;99.90;;;;;;5079243;28;20516;-60
2024/03/22 11:34:06;;;;;;;13.83;12.20;;;15.50;99.90;;;;;;5079067;28;20489;-59
2024/03/22 11:36:33;;;;;;;14.70;11.83;;;15.50;99.90;;;;;;5079686;28;20548;-61
2024/03/22 11:38:59;;;;;;;13.83;12.13;;;15.70;99.90;;;;;;5078943;28;20453;-61
2024/03/22 11:41:29;;;;;;;14.27;11.50;;;15.90;99.90;;;;;;5078818;28;20453;-61
2024/03/22 11:43:57;;;;;;;14.10;11.40;;;16.30;99.90;;;;;;5078780;28;20460;-62
2024/03/22 11:46:25;;;;;;;12.90;11.37;;;16.60;99.90;;;;;;5079427;28;20943;-62
2024/03/22 11:48:52;;;;;;;16.40;11.03;;;16.70;99.90;;;;;;5078778;28;20465;-62
2024/03/22 11:51:22;;;;;;;13.23;11.90;;;16.80;99.90;;;;;;5078412;28;20588;-62
2024/03/22 11:53:52;;;;;;;19.67;13.63;;;16.70;99.90;;;;;;5078771;28;20540;-62
2024/03/22 11:56:20;;;;;;;18.53;12.80;;;16.60;99.90;;;;;;5078314;28;20461;-61
2024/03/22 11:58:48;;;;;;;14.50;11.60;;;16.70;99.90;;;;;;5078508;28;20453;-62
2024/03/22 12:01:16;;;;;;;14.40;12.37;;;16.80;99.90;;;;;;5078656;28;20968;-62
2024/03/22 12:03:44;;;;;;;16.47;11.80;;;16.60;99.90;;;;;;5078364;28;20817;-61
2024/03/22 12:06:12;;;;;;;12.70;11.40;;;16.30;99.90;;;;;;5078617;28;20969;-63
2024/03/22 12:08:40;;;;;;;16.73;11.87;;;16.30;99.90;;;;;;5077412;28;20511;-61
2024/03/22 12:11:09;;;;;;;17.80;13.20;;;16.30;99.90;;;;;;5077776;28;20984;-62
2024/03/22 12:13:36;;;;;;;14.87;12.73;;;16.70;99.90;;;;;;5078198;28;20466;-62
2024/03/22 12:16:04;;;;;;;15.83;14.20;;;17.00;99.90;;;;;;5078279;28;20464;-62
2024/03/22 12:18:31;;;;;;;19.17;14.20;;;17.10;99.90;;;;;;5080067;28;20479;-63
2024/03/22 12:20:58;;;;;;;17.73;15.93;;;17.10;99.90;;;;;;5078477;28;20461;-62
2024/03/22 12:23:25;;;;;;;18.23;16.03;;;17.00;99.90;;;;;;5076594;28;20453;-62
2024/03/22 12:25:54;;;;;;;19.30;17.30;;;16.90;99.90;;;;;;5078131;28;20453;-61
2024/03/22 12:28:22;;;;;;;18.87;14.83;;;16.70;99.90;;;;;;5077559;28;20472;-60
2024/03/22 12:30:49;;;;;;;16.50;14.80;;;16.30;99.90;;;;;;5078226;28;20547;-61